Airfield :
LOGIN :

Register | Disclaimer

   EN    FR    IT 

 










Legend :    VFR   Marginal VFR   IFR   Intensive IFR   Very Intensive IFR
Visi :
Ceiling :
>= 8 km
>= 3000ft
5 to 8 km
1000 to 3000 ft
1500m to 5 km
500 to 1000 ft
800 to 1500m
200 to 500 ft
< 800m
< 200 ft
Symbols :   Thunderstorms  Fog  Heavy snow  Heavy precipitations  Wind > 20 kt
SIGMETs :     Misc.  Thunderstorms  Icing  Turbulence  Mountain Waves  Volcanic Ashes






- Airport Elevation : 268 ft
- IATA code : BFS


EGAA - Belfast Aldergrove

CURRENT METAR :
  • 010120Z 28004KT CAVOK 04/03 Q1028

EXPIRED METARs :
  • 010050Z 28005KT CAVOK 03/02 Q1028
  • 010020Z 25002KT CAVOK 03/02 Q1028
  • 302350Z 18002KT CAVOK 03/02 Q1028
  • 302320Z 26004KT 9999 FEW036 03/02 Q1027
  • 302250Z 00000KT CAVOK 03/02 Q1027

TAF TAF EGAA
Valid from the 01 at 00:00 until the 02 at 00:00 UTC


302259Z 0100/0124 20004KT 9999 FEW012 SCT035
PROB30
TEMPO 0106/0112 7000 -RA
BECMG 0108/0112 SCT007 BKN012
PROB40
TEMPO 0111/0116 BKN004
PROB30
TEMPO 0116/0120 BKN007
PROB30
TEMPO 0120/0124 7000 -RADZ BKN004



MET'MAP, your aeronautical weather chart ! - Copyright ORBIFLY December 2007 - Disclaimer

ORBIFLY MET'MAP TEAM :

Programming & Development : Alexandra Zaïnal
Concept & original design : Baudouin d'Aumeries
Assistance for programming : Marc-Olivier Méhu
Technical & hardware support : Manuel Goepfert

Contact : metmap@orbifly.com




SOURCES & CREDITS :

   NOAA